Bennington, Minnesota
Current Conditions -  °F | °C
As of 3:54 PM on Saturday 25 Oct 2014 (Local Time) from KRST Reporting Station
Clear Clear  
Wind Chill: 63°   Ceiling: Unl
Heat Index: 63°   Visibility: 10mi
Dew Point: 27°   Wind: 13mph
Humidity: 26%   Direction: 320°NW
Pressure: 30.04"   Gusts: 29mph
Location:  43.7143°N, 92.5748°W
Report Text: KRST 252054Z 32011G25KT 10SM CLR 17/M03 A3004 RMK AO2 SLP175 T01721028 56006
Loading
Personal Weather Stations






























Interactive Weather Map
Tropical Storm Tracking
New forecast layout! Learn more

10-Day Weather Forecast

Advertisements
Track Severe Weather on mobile